RJTO

Oshima Airport

Airport
ICAO code
RJTO
IATA Code
OIM
Summary
ICAO Region
APAC
ICAO Territory
Location

Oshima, Tokyo

Serving
Tokyo
Elevation
124 ft
Coordinates
34° 46' 55" N , 139° 21' 41" E
KCC
Metar
Observation
RJTO 030700Z 05010KT 9999 FEW020 SCT025 BKN045 07/02 Q1016
Station
Oshima Airport
Date/Time
2023-02-03 07:00:00
Wind direction
50°
Wind speed
10 kts
Lowest cloud amount
few clouds
Temperature
7°C
Dew point
2°C
Humidity
70%
QNH
1016 hPa
Weather condition
n/a

Oshima Airport is an airport located on the island of Izu Ōshima, Tokyo, Japan.

Climatology

Humid Sub-tropical climate (Köppen climate classification Cfa)

Runways

Designator Length Width Surface Rops
3/21 1800 46 ASP Yes/Yes

Airport map

Aerial View

SKYbrary Partners:

Safety knowledge contributed by: